Time;durP1;ratioP1;P1;durP2;ratioP2;P2;SDS_P1;SDS_P2;PMS_P1;PMS_P2;Temp;Humidity;BMP_temperature;BMP_pressure;BME280_temperature;BME280_humidity;BME280_pressure;Samples;Min_cycle;Max_cycle;Signal;HPM_P1;HPM_P2
2022/03/14 00:00:10;;;;;;;77.47;42.97;;;;;;;-1.71;54.03;96474.19;5051408;28;20119;-65
2022/03/14 00:02:36;;;;;;;79.03;43.30;;;;;;;-1.69;53.60;96477.59;5051842;28;20056;-64
2022/03/14 00:05:04;;;;;;;74.93;41.25;;;;;;;-1.73;53.63;96476.72;5051367;28;20033;-67
2022/03/14 00:07:31;;;;;;;81.30;44.13;;;;;;;-1.77;53.54;96471.63;5051724;28;20045;-65
2022/03/14 00:09:57;;;;;;;78.75;46.45;;;;;;;-1.85;54.17;96477.47;5051347;28;20132;-66
2022/03/14 00:12:25;;;;;;;80.00;42.25;;;;;;;-1.80;53.76;96484.22;5051208;28;20108;-66
2022/03/14 00:14:55;;;;;;;72.22;40.83;;;;;;;-2.06;54.27;96444.41;5051104;28;20053;-66
2022/03/14 00:17:21;;;;;;;71.43;40.67;;;;;;;-2.12;54.23;96432.53;5050965;28;20112;-66
2022/03/14 00:19:47;;;;;;;76.45;39.92;;;;;;;-1.97;53.78;96468.91;5051524;28;20033;-66
2022/03/14 00:22:18;;;;;;;70.13;41.53;;;;;;;-1.87;54.43;96499.38;5051355;28;20029;-65
2022/03/14 00:24:44;;;;;;;69.73;39.83;;;;;;;-1.93;54.77;96486.66;5051364;28;20037;-64
2022/03/14 00:27:09;;;;;;;63.88;36.08;;;;;;;-2.00;54.28;96489.09;5049665;28;20499;-65
2022/03/14 00:29:35;;;;;;;58.75;34.55;;;;;;;-1.99;53.98;96493.34;5050636;28;20498;-65
2022/03/14 00:32:00;;;;;;;58.65;33.75;;;;;;;-2.00;54.16;96497.56;5051015;28;20033;-65
2022/03/14 00:34:27;;;;;;;61.38;34.40;;;;;;;-2.31;54.04;96435.72;5051044;28;20025;-66
2022/03/14 00:36:53;;;;;;;61.97;36.92;;;;;;;-2.23;54.16;96464.44;5050960;28;20412;-66
2022/03/14 00:39:19;;;;;;;57.47;34.28;;;;;;;-2.40;54.55;96449.97;5050775;28;20029;-66
2022/03/14 00:41:45;;;;;;;60.65;33.88;;;;;;;-2.17;54.71;96499.91;5050726;28;20541;-66
2022/03/14 00:44:15;;;;;;;53.85;31.92;;;;;;;-2.15;54.89;96498.22;5050729;28;20029;-65
2022/03/14 00:46:41;;;;;;;55.05;32.28;;;;;;;-2.14;54.55;96505.00;5050986;28;20040;-65
2022/03/14 00:49:07;;;;;;;63.00;35.40;;;;;;;-2.37;55.05;96464.31;5050886;28;20037;-66
2022/03/14 00:51:34;;;;;;;62.65;36.10;;;;;;;-2.14;54.91;96510.03;5050369;28;20090;-65
2022/03/14 00:54:01;;;;;;;66.35;36.38;;;;;;;-2.23;55.32;96508.28;5050853;28;20029;-66
2022/03/14 00:56:27;;;;;;;58.95;34.47;;;;;;;-2.30;55.53;96519.13;5050586;28;20037;-68
2022/03/14 00:58:52;;;;;;;58.83;33.80;;;;;;;-2.29;54.84;96525.06;5050471;28;20048;-66
2022/03/14 01:01:18;;;;;;;60.67;34.80;;;;;;;-2.55;55.05;96486.84;5049693;28;20021;-66
2022/03/14 01:03:44;;;;;;;61.00;35.88;;;;;;;-2.49;54.39;96518.09;5049891;28;20036;-64
2022/03/14 01:06:09;;;;;;;65.75;36.13;;;;;;;-2.53;54.68;96518.88;5050039;28;20040;-64
2022/03/14 01:08:35;;;;;;;50.78;30.38;;;;;;;-2.56;54.59;96521.34;5050410;28;20484;-65
2022/03/14 01:11:00;;;;;;;48.45;29.05;;;;;;;-2.64;55.01;96522.94;5050248;28;20112;-65
2022/03/14 01:13:26;;;;;;;42.55;28.45;;;;;;;-2.68;54.92;96519.53;5049750;28;20052;-65
2022/03/14 01:15:51;;;;;;;44.22;26.35;;;;;;;-3.15;54.94;96457.50;5050067;28;20051;-67
2022/03/14 01:18:17;;;;;;;38.70;24.15;;;;;;;-2.68;54.96;96519.53;5050250;28;20033;-64
2022/03/14 01:20:42;;;;;;;45.72;26.95;;;;;;;-2.69;55.17;96522.91;5048417;28;20396;-65
2022/03/14 01:23:08;;;;;;;45.05;28.55;;;;;;;-2.71;55.26;96514.44;5050020;28;20053;-68
2022/03/14 01:25:35;;;;;;;51.15;27.80;;;;;;;-2.66;55.63;96525.44;5049756;28;20033;-66
2022/03/14 01:28:01;;;;;;;49.92;28.75;;;;;;;-2.55;55.80;96522.22;5049516;28;20357;-66
2022/03/14 01:30:26;;;;;;;47.33;28.35;;;;;;;-2.73;55.00;96487.47;5049575;28;20060;-64
2022/03/14 01:32:52;;;;;;;47.40;30.50;;;;;;;-2.51;54.54;96524.81;5048453;28;20064;-65
2022/03/14 01:35:18;;;;;;;46.50;28.00;;;;;;;-2.60;54.85;96528.03;5049652;28;20025;-66
2022/03/14 01:37:46;;;;;;;44.60;26.92;;;;;;;-2.56;54.69;96521.34;5049687;28;20047;-66
2022/03/14 01:40:14;;;;;;;47.17;28.15;;;;;;;-2.47;55.04;96525.69;5049274;28;20561;-68
2022/03/14 01:42:40;;;;;;;42.85;27.38;;;;;;;-2.75;54.35;96479.88;5049603;28;20021;-65
2022/03/14 01:45:05;;;;;;;45.63;28.20;;;;;;;-2.63;55.11;96520.44;5049422;28;20032;-66
2022/03/14 01:47:34;;;;;;;44.60;28.48;;;;;;;-2.78;54.87;96485.72;5049329;28;20025;-66
2022/03/14 01:50:00;;;;;;;48.67;29.17;;;;;;;-2.58;54.99;96517.97;5049727;28;20534;-67
2022/03/14 01:52:25;;;;;;;47.85;30.13;;;;;;;-2.46;54.93;96522.31;5049168;28;20159;-67
2022/03/14 01:54:51;;;;;;;51.72;30.88;;;;;;;-2.24;55.55;96533.53;5049361;28;20108;-67
2022/03/14 01:57:17;;;;;;;57.80;32.40;;;;;;;-2.26;56.07;96537.72;5049181;28;20029;-67
2022/03/14 01:59:43;;;;;;;59.10;33.78;;;;;;;-2.40;56.00;96543.44;5049417;28;20036;-67
2022/03/14 02:02:09;;;;;;;57.50;33.85;;;;;;;-2.47;56.49;96551.78;5049200;28;20124;-66
2022/03/14 02:04:36;;;;;;;60.50;34.15;;;;;;;-2.77;56.88;96500.06;5048986;28;20167;-67
2022/03/14 02:07:02;;;;;;;63.08;35.13;;;;;;;-2.80;57.40;96514.34;5049233;28;20108;-65
2022/03/14 02:09:27;;;;;;;57.08;31.25;;;;;;;-2.99;57.00;96508.19;5049039;28;20036;-67
2022/03/14 02:11:56;;;;;;;54.00;32.25;;;;;;;-2.70;57.39;96548.13;5049163;28;20033;-68
2022/03/14 02:14:23;;;;;;;56.72;32.20;;;;;;;-2.70;57.36;96548.13;5048714;28;20053;-65
2022/03/14 02:16:49;;;;;;;63.25;36.75;;;;;;;-2.71;57.94;96554.00;5048508;28;20029;-66
2022/03/14 02:19:14;;;;;;;57.90;35.30;;;;;;;-2.68;58.11;96554.03;5048988;28;20074;-67
2022/03/14 02:21:40;;;;;;;52.65;31.58;;;;;;;-2.80;57.54;96526.97;5048443;28;20040;-65
2022/03/14 02:24:06;;;;;;;56.10;31.00;;;;;;;-2.57;57.31;96562.59;5048900;28;20033;-65
2022/03/14 02:26:36;;;;;;;54.47;30.45;;;;;;;-2.37;57.80;96567.91;5048813;28;20087;-68
2022/03/14 02:29:01;;;;;;;53.38;30.77;;;;;;;-2.27;57.77;96561.28;5048036;28;20112;-67
2022/03/14 02:31:27;;;;;;;48.00;29.40;;;;;;;-2.21;57.23;96581.59;5048687;28;20466;-65
2022/03/14 02:33:52;;;;;;;52.33;31.30;;;;;;;-2.20;58.06;96575.69;5049040;28;20017;-67
2022/03/14 02:36:18;;;;;;;57.63;31.38;;;;;;;-2.26;57.77;96580.69;5048317;28;20055;-67
2022/03/14 02:38:43;;;;;;;51.75;30.63;;;;;;;-2.33;58.09;96577.19;5048707;28;20080;-66
2022/03/14 02:41:10;;;;;;;50.08;28.83;;;;;;;-2.33;57.61;96583.94;5048068;28;20687;-64
2022/03/14 02:43:36;;;;;;;47.50;27.65;;;;;;;-2.37;57.95;96592.34;5048773;28;20032;-64
2022/03/14 02:46:02;;;;;;;51.20;28.10;;;;;;;-2.50;57.64;96589.63;5048211;28;20025;-65
2022/03/14 02:48:28;;;;;;;48.35;26.38;;;;;;;-2.68;57.34;96556.56;5048196;28;20064;-65
2022/03/14 02:50:53;;;;;;;43.80;26.00;;;;;;;-2.62;57.37;96581.91;5048454;28;20094;-66
2022/03/14 02:53:19;;;;;;;50.95;28.88;;;;;;;-2.64;57.25;96597.03;5047980;28;20029;-66
2022/03/14 02:55:45;;;;;;;41.53;25.48;;;;;;;-2.95;57.61;96562.94;5048455;28;20211;-64
2022/03/14 02:58:11;;;;;;;37.17;23.17;;;;;;;-2.98;57.04;96580.56;5048365;28;20025;-66
2022/03/14 03:00:37;;;;;;;38.88;24.10;;;;;;;-3.37;57.79;96513.53;5048054;28;20135;-66
2022/03/14 03:03:06;;;;;;;44.25;24.52;;;;;;;-2.87;57.31;96609.34;5048593;28;20130;-65
2022/03/14 03:05:34;;;;;;;40.80;24.55;;;;;;;-3.25;56.80;96549.00;5045552;28;20550;-66
2022/03/14 03:08:00;;;;;;;43.65;24.67;;;;;;;-2.91;57.01;96607.56;5048346;28;20037;-65
2022/03/14 03:10:27;;;;;;;47.13;28.95;;;;;;;-3.08;57.49;96582.09;5047971;28;20075;-67
2022/03/14 03:12:52;;;;;;;54.45;28.23;;;;;;;-2.98;57.64;96610.84;5047929;28;20089;-65
2022/03/14 03:15:19;;;;;;;46.05;27.40;;;;;;;-3.18;57.93;96611.38;5046477;28;20028;-65
2022/03/14 03:17:44;;;;;;;41.28;26.20;;;;;;;-3.14;58.35;96622.38;5047224;28;20029;-66
2022/03/14 03:20:11;;;;;;;52.70;29.20;;;;;;;-3.41;59.00;96589.94;5047860;28;20036;-65
2022/03/14 03:22:38;;;;;;;50.05;28.20;;;;;;;-3.34;59.36;96622.03;5048032;28;20105;-66
2022/03/14 03:25:05;;;;;;;43.38;26.17;;;;;;;-3.42;59.22;96610.97;5047450;28;20068;-66
2022/03/14 03:27:31;;;;;;;49.60;26.10;;;;;;;-3.52;59.34;96597.34;5047689;28;20102;-65
2022/03/14 03:29:57;;;;;;;42.78;24.15;;;;;;;-3.34;58.68;96629.63;5047339;28;20170;-66
2022/03/14 03:32:23;;;;;;;49.85;28.13;;;;;;;-3.23;58.67;96629.78;5046747;28;20108;-63
2022/03/14 03:34:50;;;;;;;47.10;26.33;;;;;;;-3.52;58.52;96582.22;5047697;28;20037;-64
2022/03/14 03:37:15;;;;;;;50.45;28.50;;;;;;;-3.27;58.60;96633.94;5047823;28;20123;-64
2022/03/14 03:39:41;;;;;;;44.15;26.77;;;;;;;-3.39;58.91;96606.81;5047347;28;20174;-65
2022/03/14 03:42:06;;;;;;;44.17;26.45;;;;;;;-3.26;58.92;96634.75;5047772;28;20484;-65
2022/03/14 03:44:32;;;;;;;42.25;24.38;;;;;;;-3.18;58.04;96638.28;5047560;28;20025;-65
2022/03/14 03:46:58;;;;;;;41.40;24.15;;;;;;;-3.34;57.93;96625.41;5047681;28;20056;-66
2022/03/14 03:49:23;;;;;;;39.38;24.70;;;;;;;-3.63;58.15;96576.16;5048056;28;20036;-65
2022/03/14 03:51:49;;;;;;;47.92;26.75;;;;;;;-3.29;59.05;96637.25;5047328;28;20021;-66
2022/03/14 03:54:14;;;;;;;47.97;26.02;;;;;;;-3.21;58.50;96654.22;5047889;28;20025;-66
2022/03/14 03:56:40;;;;;;;48.33;27.98;;;;;;;-3.27;59.00;96650.75;5047856;28;20046;-65
2022/03/14 03:59:05;;;;;;;52.60;28.88;;;;;;;-3.24;59.21;96656.69;5047692;28;20039;-65
2022/03/14 04:01:31;;;;;;;50.08;29.05;;;;;;;-3.42;59.54;96619.38;5047224;28;20405;-64
2022/03/14 04:03:58;;;;;;;49.75;29.48;;;;;;;-3.67;59.17;96584.47;5047317;28;20408;-65
2022/03/14 04:06:28;;;;;;;51.45;30.20;;;;;;;-3.18;59.57;96666.91;5047154;28;20095;-66
2022/03/14 04:08:54;;;;;;;51.80;30.73;;;;;;;-3.24;59.76;96651.66;5047187;28;20536;-65
2022/03/14 04:11:21;;;;;;;47.53;28.85;;;;;;;-3.09;59.51;96665.34;5047338;28;20492;-65
2022/03/14 04:13:48;;;;;;;54.30;31.67;;;;;;;-3.18;59.79;96650.88;5047116;28;20060;-66
2022/03/14 04:16:16;;;;;;;51.85;31.00;;;;;;;-3.15;60.11;96677.03;5046912;28;20488;-67
2022/03/14 04:18:41;;;;;;;50.33;28.42;;;;;;;-3.26;60.06;96672.59;5047812;28;20095;-66
2022/03/14 04:21:07;;;;;;;47.78;28.70;;;;;;;-3.47;60.35;96645.38;5047434;28;20473;-68
2022/03/14 04:23:33;;;;;;;47.60;29.67;;;;;;;-3.34;60.51;96678.38;5047278;28;20120;-66
2022/03/14 04:25:58;;;;;;;52.72;31.02;;;;;;;-3.61;60.79;96625.75;5047851;28;20055;-67
2022/03/14 04:28:24;;;;;;;50.97;29.33;;;;;;;-3.42;60.71;96648.81;5046751;28;20017;-66
2022/03/14 04:30:50;;;;;;;58.05;30.63;;;;;;;-3.25;61.05;96685.25;5041194;28;20037;-66
2022/03/14 04:33:15;;;;;;;52.05;31.08;;;;;;;-3.27;61.42;96689.44;5025706;28;20036;-65
2022/03/14 04:35:41;;;;;;;51.10;30.00;;;;;;;-3.28;60.72;96685.22;5027168;28;20038;-66
2022/03/14 04:38:09;;;;;;;51.03;28.48;;;;;;;-3.31;60.87;96695.25;5029460;28;20401;-68
2022/03/14 04:40:37;;;;;;;44.17;26.88;;;;;;;-3.34;60.32;96690.16;5030589;28;20028;-66
2022/03/14 04:43:07;;;;;;;41.60;27.92;;;;;;;-3.56;60.06;96674.63;5030916;28;20026;-65
2022/03/14 04:45:35;;;;;;;46.35;29.10;;;;;;;-3.48;60.31;96692.41;5030688;28;20061;-66
2022/03/14 04:48:01;;;;;;;43.92;26.58;;;;;;;-3.33;59.94;96706.97;5030960;28;20446;-66
2022/03/14 04:50:26;;;;;;;48.20;28.30;;;;;;;-3.41;59.95;96713.56;5033498;28;20112;-65
2022/03/14 04:52:52;;;;;;;48.17;27.95;;;;;;;-3.48;60.17;96712.59;5050205;28;20111;-66
2022/03/14 04:55:17;;;;;;;48.42;28.80;;;;;;;-3.92;60.39;96659.63;5050602;28;20036;-65
2022/03/14 04:57:43;;;;;;;47.28;27.52;;;;;;;-3.58;60.32;96725.84;5050441;28;20041;-66
2022/03/14 05:00:08;;;;;;;43.42;25.02;;;;;;;-3.71;60.44;96713.00;5046186;28;20033;-66
2022/03/14 05:02:35;;;;;;;41.42;24.08;;;;;;;-3.69;59.35;96713.03;5030274;28;20083;-65
2022/03/14 05:05:01;;;;;;;34.25;22.63;;;;;;;-3.58;59.91;96746.03;5030040;28;20034;-66
2022/03/14 05:07:26;;;;;;;30.95;19.50;;;;;;;-3.49;59.26;96740.31;5030415;28;20044;-66
2022/03/14 05:09:52;;;;;;;33.30;18.15;;;;;;;-3.48;58.45;96757.16;5036076;28;20056;-65
2022/03/14 05:12:17;;;;;;;29.67;17.42;;;;;;;-3.62;57.67;96745.13;5040270;28;20396;-65
2022/03/14 05:14:43;;;;;;;27.10;15.05;;;;;;;-3.60;58.20;96748.50;5037049;28;20042;-62
2022/03/14 05:17:09;;;;;;;26.58;15.88;;;;;;;-3.58;57.81;96763.69;5030698;28;20546;-65
2022/03/14 05:19:34;;;;;;;28.98;17.58;;;;;;;-3.62;57.78;96749.28;5029962;28;20037;-68
2022/03/14 05:22:01;;;;;;;23.58;14.32;;;;;;;-3.52;57.36;96736.91;5040054;28;20033;-68
2022/03/14 05:24:27;;;;;;;23.58;15.00;;;;;;;-3.33;56.86;96765.88;5050041;28;20135;-67
2022/03/14 05:26:54;;;;;;;22.50;15.45;;;;;;;-3.06;56.19;96771.41;5049951;28;20036;-67
2022/03/14 05:29:20;;;;;;;25.15;16.00;;;;;;;-2.98;55.71;96765.66;5047346;28;20029;-68
2022/03/14 05:31:45;;;;;;;25.70;15.82;;;;;;;-2.69;54.72;96757.75;5036158;28;20036;-69
2022/03/14 05:34:11;;;;;;;27.48;17.10;;;;;;;-2.53;54.02;96751.25;5047283;28;20094;-67
2022/03/14 05:36:37;;;;;;;29.70;18.30;;;;;;;-2.56;54.33;96779.00;5039363;28;20508;-68
2022/03/14 05:39:04;;;;;;;29.80;16.65;;;;;;;-2.68;55.01;96779.63;5027320;28;20040;-69
2022/03/14 05:41:29;;;;;;;36.10;20.20;;;;;;;-2.70;55.33;96782.97;5035230;28;20028;-69
2022/03/14 05:43:55;;;;;;;24.48;17.63;;;;;;;-2.80;55.06;96760.09;5029529;28;20076;-69
2022/03/14 05:46:20;;;;;;;27.10;16.63;;;;;;;-2.44;54.41;96775.84;5032129;28;20440;-66
2022/03/14 05:48:46;;;;;;;30.05;19.25;;;;;;;-2.68;54.18;96718.19;5032294;28;20022;-68
2022/03/14 05:51:11;;;;;;;33.20;17.98;;;;;;;-2.29;53.43;96755.00;5029374;28;20068;-68
2022/03/14 05:53:37;;;;;;;31.98;17.15;;;;;;;-2.42;52.48;96689.13;5037636;28;21117;-68
2022/03/14 05:56:03;;;;;;;30.95;18.05;;;;;;;-1.83;52.42;96772.50;5029537;28;20399;-68
2022/03/14 05:58:28;;;;;;;30.52;19.25;;;;;;;-1.89;52.10;96745.44;5032147;28;20029;-68
2022/03/14 06:00:54;;;;;;;31.98;18.92;;;;;;;-1.65;52.00;96757.56;5031544;28;20029;-68
2022/03/14 06:03:20;;;;;;;30.17;19.33;;;;;;;-1.39;51.56;96784.88;5037554;28;20046;-70
2022/03/14 06:05:49;;;;;;;34.13;20.58;;;;;;;-1.13;50.88;96792.78;5024246;28;20199;-69
2022/03/14 06:08:16;;;;;;;31.88;20.20;;;;;;;-1.08;50.33;96783.56;5029163;28;20041;-69
2022/03/14 06:10:42;;;;;;;30.77;19.48;;;;;;;-1.05;51.03;96797.91;5029124;28;20124;-70
2022/03/14 06:13:08;;;;;;;32.50;18.67;;;;;;;-1.19;50.06;96767.38;5028238;28;20053;-69
2022/03/14 06:15:37;;;;;;;31.00;19.02;;;;;;;-0.88;50.31;96796.41;5028787;28;20060;-68
2022/03/14 06:18:02;;;;;;;29.33;18.88;;;;;;;-0.83;49.16;96796.47;5028217;28;20511;-70
2022/03/14 06:20:28;;;;;;;33.60;19.15;;;;;;;-0.91;49.06;96791.31;5028846;28;20078;-68
2022/03/14 06:22:53;;;;;;;29.83;19.10;;;;;;;-0.72;48.78;96804.16;5029230;28;20033;-69
2022/03/14 06:25:19;;;;;;;35.25;22.33;;;;;;;-0.70;49.47;96802.50;5025749;28;20025;-67
2022/03/14 06:27:45;;;;;;;35.22;21.00;;;;;;;-0.74;49.06;96801.59;5043036;28;20869;-68
2022/03/14 06:30:11;;;;;;;38.08;21.33;;;;;;;-0.85;49.75;96800.66;5045309;28;20025;-70
2022/03/14 06:32:38;;;;;;;33.20;20.63;;;;;;;-0.99;49.21;96750.72;5029930;28;20037;-69
2022/03/14 06:35:11;;;;;;;35.05;21.40;;;;;;;-0.40;49.22;96817.13;5035769;28;20024;-67
2022/03/14 06:37:37;;;;;;;39.67;23.35;;;;;;;-0.55;49.07;96807.72;5048390;28;20146;-68
2022/03/14 06:40:03;;;;;;;33.35;22.08;;;;;;;-0.41;49.68;96821.38;5048524;28;20021;-67
2022/03/14 06:42:29;;;;;;;43.03;23.67;;;;;;;-0.53;49.33;96787.47;5048611;28;20036;-67
2022/03/14 06:45:00;;;;;;;39.33;24.60;;;;;;;-0.14;48.05;96808.91;5048465;28;20036;-68
2022/03/14 06:47:25;;;;;;;40.50;23.35;;;;;;;0.02;48.01;96831.00;5048294;28;20120;-69
2022/03/14 06:49:51;;;;;;;43.85;22.88;;;;;;;-0.10;48.08;96796.28;5048223;28;20115;-69
2022/03/14 06:52:17;;;;;;;40.55;23.98;;;;;;;-0.05;47.77;96834.31;5048067;28;20494;-69
2022/03/14 06:54:42;;;;;;;40.00;25.05;;;;;;;-0.10;47.76;96806.41;5048160;28;20037;-70
2022/03/14 06:57:09;;;;;;;43.10;25.75;;;;;;;-0.39;48.45;96780.81;5048168;28;20112;-69
2022/03/14 06:59:35;;;;;;;44.72;24.60;;;;;;;-0.25;47.65;96802.03;5047230;28;20037;-69
2022/03/14 07:02:01;;;;;;;39.67;24.98;;;;;;;-0.39;47.68;96722.53;5048230;28;20404;-68
2022/03/14 07:04:27;;;;;;;44.80;26.13;;;;;;;0.43;46.68;96819.44;5047324;28;20100;-68
2022/03/14 07:06:53;;;;;;;42.55;25.65;;;;;;;0.40;46.67;96837.19;5048343;28;20105;-69
2022/03/14 07:09:18;;;;;;;40.08;24.20;;;;;;;0.17;46.25;96769.38;5048210;28;20404;-69
2022/03/14 07:11:44;;;;;;;38.78;25.27;;;;;;;0.72;45.92;96835.66;5048060;28;20025;-69
2022/03/14 07:14:09;;;;;;;42.00;24.17;;;;;;;0.87;44.74;96823.84;5047873;28;20087;-68
2022/03/14 07:16:35;;;;;;;41.67;25.05;;;;;;;0.91;44.86;96816.25;5048227;28;20029;-69
2022/03/14 07:19:01;;;;;;;48.63;26.75;;;;;;;1.15;44.55;96840.06;5047992;28;20043;-68
2022/03/14 07:21:29;;;;;;;44.97;24.90;;;;;;;1.17;44.10;96822.28;5048021;28;20354;-69
2022/03/14 07:23:55;;;;;;;40.60;25.30;;;;;;;0.99;44.13;96806.13;5047944;28;20029;-68
2022/03/14 07:26:21;;;;;;;43.38;28.02;;;;;;;1.20;44.68;96845.16;5048008;28;20106;-69
2022/03/14 07:28:48;;;;;;;50.03;27.40;;;;;;;1.07;44.37;96839.19;5047586;28;20464;-68
2022/03/14 07:31:14;;;;;;;39.85;26.50;;;;;;;1.08;44.14;96812.94;5047949;28;20447;-69
2022/03/14 07:33:39;;;;;;;43.72;27.45;;;;;;;1.32;44.04;96844.34;5047742;28;20029;-69
2022/03/14 07:36:05;;;;;;;38.92;27.63;;;;;;;1.48;43.05;96841.00;5048055;28;20029;-69
2022/03/14 07:38:30;;;;;;;45.08;26.73;;;;;;;1.64;42.95;96816.41;5048032;28;20040;-68
2022/03/14 07:40:56;;;;;;;41.85;28.00;;;;;;;1.78;42.76;96829.16;5047314;28;20033;-67
2022/03/14 07:43:21;;;;;;;45.47;26.90;;;;;;;1.92;42.45;96839.31;5047891;28;20029;-68
2022/03/14 07:45:48;;;;;;;47.33;26.00;;;;;;;1.87;42.13;96831.72;5047478;28;20049;-69
2022/03/14 07:48:13;;;;;;;37.65;24.83;;;;;;;1.99;41.73;96821.53;5046493;28;20078;-69
2022/03/14 07:50:39;;;;;;;42.15;25.30;;;;;;;1.43;40.92;96693.53;5047485;28;20435;-70
2022/03/14 07:53:06;;;;;;;33.58;22.60;;;;;;;2.43;39.97;96826.56;5046955;28;20057;-67
2022/03/14 07:55:32;;;;;;;26.83;18.75;;;;;;;2.38;38.31;96819.78;5047631;28;20041;-68
2022/03/14 07:57:57;;;;;;;31.17;19.55;;;;;;;2.21;38.91;96796.06;5047418;28;20562;-68
2022/03/14 08:00:23;;;;;;;33.70;20.27;;;;;;;1.93;39.56;96765.53;5047367;28;20041;-69
2022/03/14 08:02:49;;;;;;;32.20;20.48;;;;;;;2.31;39.61;96847.78;5047466;28;20036;-69
2022/03/14 08:05:16;;;;;;;30.63;20.08;;;;;;;2.42;38.97;96833.34;5047075;28;20108;-70
2022/03/14 08:07:46;;;;;;;29.02;17.70;;;;;;;1.71;38.10;96700.31;5047579;28;20070;-68
2022/03/14 08:10:14;;;;;;;43.70;24.80;;;;;;;2.63;38.64;96832.47;5047801;28;20036;-69
2022/03/14 08:12:49;;;;;;;40.17;24.60;;;;;;;2.99;38.84;96828.09;5051089;28;20052;-69
2022/03/14 08:15:19;;;;;;;39.20;26.42;;;;;;;2.89;38.90;96806.06;5051336;28;20021;-69
2022/03/14 08:17:45;;;;;;;39.83;26.92;;;;;;;2.85;39.53;96829.84;5050841;28;20095;-68
2022/03/14 08:20:10;;;;;;;37.83;25.65;;;;;;;2.66;39.71;96793.41;5051502;28;20033;-68
2022/03/14 08:22:36;;;;;;;44.83;27.77;;;;;;;2.68;39.68;96790.00;5051593;28;20395;-68
2022/03/14 08:25:01;;;;;;;44.95;27.02;;;;;;;2.99;39.75;96833.19;5051475;28;20443;-68
2022/03/14 08:27:27;;;;;;;45.33;29.67;;;;;;;3.05;39.03;96806.81;5051258;28;20434;-69
2022/03/14 08:29:52;;;;;;;46.22;28.05;;;;;;;3.29;38.90;96828.81;5050484;28;20040;-68
2022/03/14 08:32:19;;;;;;;43.92;27.33;;;;;;;3.44;38.50;96817.66;5050805;28;20021;-68
2022/03/14 08:34:45;;;;;;;43.47;28.45;;;;;;;3.35;37.60;96790.53;5049524;28;20025;-69
2022/03/14 08:37:11;;;;;;;41.03;27.40;;;;;;;3.83;37.48;96826.75;5051442;28;20123;-69
2022/03/14 08:39:36;;;;;;;35.67;26.30;;;;;;;3.72;37.58;96785.16;5050915;28;20452;-69
2022/03/14 08:42:04;;;;;;;39.92;27.27;;;;;;;4.10;36.36;96809.53;5050655;28;20044;-69
2022/03/14 08:44:29;;;;;;;40.53;24.67;;;;;;;4.12;35.84;96806.97;5050624;28;20055;-70
2022/03/14 08:46:55;;;;;;;36.10;24.35;;;;;;;4.21;35.46;96825.63;5050990;28;20460;-67
2022/03/14 08:49:20;;;;;;;39.33;25.42;;;;;;;4.19;35.98;96832.41;5050733;28;20029;-70
2022/03/14 08:51:46;;;;;;;37.78;24.30;;;;;;;4.24;35.97;96820.44;5050402;28;20063;-72
2022/03/14 08:54:11;;;;;;;35.92;25.85;;;;;;;4.33;35.19;96814.44;5051118;28;20491;-73
2022/03/14 08:56:37;;;;;;;41.92;24.30;;;;;;;4.51;35.12;96831.28;5050623;28;20341;-69
2022/03/14 08:59:04;;;;;;;32.67;22.35;;;;;;;4.67;34.60;96828.56;5050771;28;20415;-69
2022/03/14 09:01:30;;;;;;;36.83;22.95;;;;;;;5.58;33.42;96810.38;5050329;28;20037;-67
2022/03/14 09:03:56;;;;;;;33.75;24.40;;;;;;;9.37;28.41;96776.34;5050183;28;20602;-68
2022/03/14 09:06:21;;;;;;;36.53;26.60;;;;;;;12.31;24.59;96790.88;5050931;28;20040;-69
2022/03/14 09:08:47;;;;;;;39.88;25.80;;;;;;;14.11;21.98;96757.75;5050425;28;20127;-70
2022/03/14 09:11:13;;;;;;;36.88;25.80;;;;;;;15.86;19.96;96778.94;5050045;28;20040;-70
2022/03/14 09:13:39;;;;;;;37.10;26.73;;;;;;;16.83;18.58;96760.28;5050102;28;20444;-71
2022/03/14 09:16:07;;;;;;;37.70;27.40;;;;;;;18.21;18.05;96767.41;5049742;28;20025;-68
2022/03/14 09:18:34;;;;;;;25.10;18.90;;;;;;;19.56;15.76;96754.72;5050200;28;20524;-71
2022/03/14 09:21:00;;;;;;;30.10;22.33;;;;;;;20.40;14.72;96645.56;5049804;28;20025;-71
2022/03/14 09:23:26;;;;;;;29.65;21.80;;;;;;;20.22;14.23;96760.44;5049362;28;20036;-70
2022/03/14 09:25:52;;;;;;;25.98;18.77;;;;;;;20.64;14.50;96755.53;5050086;28;20067;-71
2022/03/14 09:28:19;;;;;;;15.27;12.13;;;;;;;21.43;13.18;96716.22;5049577;28;20048;-71
2022/03/14 09:30:45;;;;;;;19.67;16.17;;;;;;;22.43;12.43;96737.97;5049694;28;20103;-71
2022/03/14 09:33:10;;;;;;;23.55;17.35;;;;;;;23.59;12.09;96744.72;5049922;28;20039;-71
2022/03/14 09:35:36;;;;;;;18.05;13.90;;;;;;;24.77;11.04;96709.47;5049200;28;20240;-69
2022/03/14 09:38:01;;;;;;;18.88;13.65;;;;;;;25.73;10.83;96727.66;5049971;28;20033;-72
2022/03/14 09:40:30;;;;;;;19.63;14.02;;;;;;;26.60;10.45;96735.88;5049275;28;20079;-71
2022/03/14 09:42:56;;;;;;;15.68;12.02;;;;;;;27.53;10.09;96740.50;5049589;28;20423;-71
2022/03/14 09:45:22;;;;;;;15.00;12.13;;;;;;;29.28;8.77;96749.97;5048153;28;20032;-71
2022/03/14 09:48:11;;;;;;;12.57;10.63;;;;;;;30.19;7.90;96753.00;5049760;28;20040;-71
2022/03/14 09:50:44;;;;;;;11.70;8.38;;;;;;;29.06;8.02;96748.88;5049357;28;20376;-70
2022/03/14 09:53:13;;;;;;;9.38;6.57;;;;;;;28.15;7.81;96760.53;5048864;28;20360;-72
2022/03/14 09:55:46;;;;;;;9.55;7.97;;;;;;;28.98;7.83;96759.53;5049262;28;20040;-71
2022/03/14 09:58:20;;;;;;;10.95;8.20;;;;;;;26.96;8.83;96755.13;5049826;28;20103;-71
2022/03/14 10:00:47;;;;;;;14.55;9.68;;;;;;;28.29;8.09;96687.47;5048942;28;20029;-72
2022/03/14 10:03:13;;;;;;;10.27;8.05;;;;;;;28.02;7.94;96737.16;5049161;28;20036;-71
2022/03/14 10:05:40;;;;;;;13.05;10.23;;;;;;;28.28;8.14;96758.22;5048776;28;20496;-72
2022/03/14 10:08:07;;;;;;;12.40;8.63;;;;;;;27.56;8.13;96641.34;5048836;28;20033;-71
2022/03/14 10:10:32;;;;;;;12.35;8.70;;;;;;;29.40;7.76;96750.47;5048860;28;20037;-72
2022/03/14 10:12:59;;;;;;;10.27;9.13;;;;;;;29.53;7.37;96720.66;5048686;28;20104;-70
2022/03/14 10:15:25;;;;;;;11.23;8.88;;;;;;;29.95;7.49;96737.22;5048658;28;20097;-72
2022/03/14 10:17:55;;;;;;;10.23;8.05;;;;;;;29.03;7.69;96693.44;5047776;28;20444;-71
2022/03/14 10:20:22;;;;;;;9.10;7.82;;;;;;;29.52;7.27;96754.38;5049073;28;20424;-70
2022/03/14 10:22:49;;;;;;;8.65;7.40;;;;;;;28.82;7.77;96685.22;5048843;28;20461;-71
2022/03/14 10:25:18;;;;;;;11.23;7.72;;;;;;;29.50;7.50;96747.59;5048967;28;20480;-71
2022/03/14 10:27:46;;;;;;;10.55;8.05;;;;;;;30.44;6.99;96746.72;5048048;28;20028;-69
2022/03/14 10:30:30;;;;;;;9.07;6.13;;;;;;;29.86;6.85;96745.25;5048353;28;20079;-73
2022/03/14 10:33:08;;;;;;;11.52;7.70;;;;;;;29.68;7.17;96718.09;5048564;28;20257;-71
2022/03/14 10:35:38;;;;;;;8.95;6.78;;;;;;;30.09;7.22;96731.16;5047603;28;20044;-70
2022/03/14 10:38:06;;;;;;;10.23;7.30;;;;;;;28.78;7.89;96743.16;5048243;28;20269;-72
2022/03/14 10:40:43;;;;;;;8.75;7.30;;;;;;;28.84;7.70;96741.63;5046716;28;20047;-71
2022/03/14 10:43:32;;;;;;;12.70;11.25;;;;;;;30.03;7.19;96737.16;5048054;28;20078;-71
2022/03/14 10:45:59;;;;;;;10.25;7.78;;;;;;;30.88;6.72;96693.50;5047955;28;20480;-71
2022/03/14 10:48:43;;;;;;;10.23;7.95;;;;;;;31.42;6.64;96727.03;5048013;28;20021;-70
2022/03/14 10:51:20;;;;;;;8.65;7.22;;;;;;;28.66;8.03;96724.06;5047955;28;20484;-70
2022/03/14 10:53:47;;;;;;;10.32;7.93;;;;;;;27.35;8.16;96732.69;5047774;28;20055;-71
2022/03/14 10:56:13;;;;;;;12.10;8.50;;;;;;;29.48;7.41;96665.38;5048393;28;20033;-71
2022/03/14 10:58:39;;;;;;;10.43;7.47;;;;;;;29.80;7.12;96687.47;5048274;28;20496;-71
2022/03/14 11:01:07;;;;;;;13.32;10.07;;;;;;;30.40;7.08;96728.44;5046414;28;20067;-72
2022/03/14 11:03:36;;;;;;;10.02;7.78;;;;;;;31.14;6.69;96724.22;5047886;28;20033;-71
2022/03/14 11:06:06;;;;;;;12.57;9.00;;;;;;;31.16;7.04;96727.53;5047854;28;20066;-70
2022/03/14 11:08:38;;;;;;;11.65;8.95;;;;;;;30.23;7.21;96717.06;5048431;28;20032;-69
2022/03/14 11:11:07;;;;;;;14.88;10.85;;;;;;;30.28;7.26;96726.34;5046504;28;20033;-70
2022/03/14 11:13:37;;;;;;;10.57;8.63;;;;;;;29.49;7.60;96709.53;5046237;28;20045;-69
2022/03/14 11:16:03;;;;;;;12.43;8.48;;;;;;;29.77;7.59;96709.06;5047325;28;20099;-70
2022/03/14 11:18:29;;;;;;;10.63;8.82;;;;;;;30.28;7.43;96729.81;5047454;28;20480;-69